sensor_id;sensor_type;location;lat;lon;timestamp;P1;durP1;ratioP1;P2;durP2;ratioP2
27706;SDS011;36332;51.384;0.040;2023-08-12T00:01:24;12.65;;;3.50;;
27706;SDS011;36332;51.384;0.040;2023-08-12T00:03:53;12.57;;;3.80;;
27706;SDS011;36332;51.384;0.040;2023-08-12T00:06:21;18.17;;;3.90;;
27706;SDS011;36332;51.384;0.040;2023-08-12T00:08:49;11.20;;;4.35;;
27706;SDS011;36332;51.384;0.040;2023-08-12T00:11:17;17.35;;;4.00;;
27706;SDS011;36332;51.384;0.040;2023-08-12T00:13:45;18.13;;;4.13;;
27706;SDS011;36332;51.384;0.040;2023-08-12T00:16:13;14.60;;;3.60;;
27706;SDS011;36332;51.384;0.040;2023-08-12T00:18:41;7.78;;;3.35;;
27706;SDS011;36332;51.384;0.040;2023-08-12T00:21:10;21.55;;;4.82;;
27706;SDS011;36332;51.384;0.040;2023-08-12T00:23:38;12.00;;;3.17;;
27706;SDS011;36332;51.384;0.040;2023-08-12T00:26:11;9.43;;;3.05;;
27706;SDS011;36332;51.384;0.040;2023-08-12T00:28:39;12.70;;;3.58;;
27706;SDS011;36332;51.384;0.040;2023-08-12T00:31:06;9.50;;;3.42;;
27706;SDS011;36332;51.384;0.040;2023-08-12T00:33:35;14.63;;;4.55;;
27706;SDS011;36332;51.384;0.040;2023-08-12T00:36:03;13.00;;;4.95;;
27706;SDS011;36332;51.384;0.040;2023-08-12T00:38:32;11.43;;;3.45;;
27706;SDS011;36332;51.384;0.040;2023-08-12T00:41:00;11.93;;;4.32;;
27706;SDS011;36332;51.384;0.040;2023-08-12T00:43:28;12.30;;;4.22;;
27706;SDS011;36332;51.384;0.040;2023-08-12T00:45:56;15.43;;;4.47;;
27706;SDS011;36332;51.384;0.040;2023-08-12T00:48:24;9.30;;;3.22;;
27706;SDS011;36332;51.384;0.040;2023-08-12T00:50:53;11.80;;;3.47;;
27706;SDS011;36332;51.384;0.040;2023-08-12T00:53:21;15.95;;;3.90;;
27706;SDS011;36332;51.384;0.040;2023-08-12T00:55:49;12.32;;;3.95;;
27706;SDS011;36332;51.384;0.040;2023-08-12T00:58:17;12.02;;;3.10;;
27706;SDS011;36332;51.384;0.040;2023-08-12T01:00:45;9.43;;;3.47;;
27706;SDS011;36332;51.384;0.040;2023-08-12T01:03:13;13.15;;;4.38;;
27706;SDS011;36332;51.384;0.040;2023-08-12T01:05:41;13.90;;;3.63;;
27706;SDS011;36332;51.384;0.040;2023-08-12T01:08:09;11.45;;;3.35;;
27706;SDS011;36332;51.384;0.040;2023-08-12T01:10:38;8.45;;;3.83;;
27706;SDS011;36332;51.384;0.040;2023-08-12T01:15:40;14.18;;;3.35;;
27706;SDS011;36332;51.384;0.040;2023-08-12T01:18:09;12.45;;;3.65;;
27706;SDS011;36332;51.384;0.040;2023-08-12T01:20:38;12.10;;;3.00;;
27706;SDS011;36332;51.384;0.040;2023-08-12T01:23:13;19.52;;;3.83;;
27706;SDS011;36332;51.384;0.040;2023-08-12T01:25:42;21.10;;;4.38;;
27706;SDS011;36332;51.384;0.040;2023-08-12T01:28:10;12.70;;;3.47;;
27706;SDS011;36332;51.384;0.040;2023-08-12T01:34:19;10.52;;;3.95;;
27706;SDS011;36332;51.384;0.040;2023-08-12T01:36:55;11.23;;;3.20;;
27706;SDS011;36332;51.384;0.040;2023-08-12T01:39:25;10.98;;;3.35;;
27706;SDS011;36332;51.384;0.040;2023-08-12T01:41:54;10.95;;;3.83;;
27706;SDS011;36332;51.384;0.040;2023-08-12T01:44:23;8.27;;;3.05;;
27706;SDS011;36332;51.384;0.040;2023-08-12T01:46:51;14.55;;;3.88;;
27706;SDS011;36332;51.384;0.040;2023-08-12T01:49:21;13.30;;;4.60;;
27706;SDS011;36332;51.384;0.040;2023-08-12T01:51:51;12.15;;;4.10;;
27706;SDS011;36332;51.384;0.040;2023-08-12T01:54:19;15.68;;;4.22;;
27706;SDS011;36332;51.384;0.040;2023-08-12T01:56:47;15.32;;;5.03;;
27706;SDS011;36332;51.384;0.040;2023-08-12T01:59:15;14.85;;;4.22;;
27706;SDS011;36332;51.384;0.040;2023-08-12T02:01:43;13.98;;;4.20;;
27706;SDS011;36332;51.384;0.040;2023-08-12T02:04:11;10.57;;;3.88;;
27706;SDS011;36332;51.384;0.040;2023-08-12T02:06:39;13.07;;;4.82;;
27706;SDS011;36332;51.384;0.040;2023-08-12T02:09:07;14.25;;;5.10;;
27706;SDS011;36332;51.384;0.040;2023-08-12T02:11:35;16.00;;;4.97;;
27706;SDS011;36332;51.384;0.040;2023-08-12T02:14:03;17.92;;;5.30;;
27706;SDS011;36332;51.384;0.040;2023-08-12T02:16:32;14.05;;;5.43;;
27706;SDS011;36332;51.384;0.040;2023-08-12T02:19:00;19.60;;;4.40;;
27706;SDS011;36332;51.384;0.040;2023-08-12T02:21:28;15.23;;;4.63;;
27706;SDS011;36332;51.384;0.040;2023-08-12T02:23:56;19.33;;;4.65;;
27706;SDS011;36332;51.384;0.040;2023-08-12T02:26:24;18.90;;;5.20;;
27706;SDS011;36332;51.384;0.040;2023-08-12T02:28:52;15.20;;;4.85;;
27706;SDS011;36332;51.384;0.040;2023-08-12T02:31:20;21.30;;;5.30;;
27706;SDS011;36332;51.384;0.040;2023-08-12T02:33:48;17.90;;;4.50;;
27706;SDS011;36332;51.384;0.040;2023-08-12T02:36:18;14.38;;;4.78;;
27706;SDS011;36332;51.384;0.040;2023-08-12T02:38:46;15.68;;;5.85;;
27706;SDS011;36332;51.384;0.040;2023-08-12T02:41:14;17.58;;;5.57;;
27706;SDS011;36332;51.384;0.040;2023-08-12T02:43:42;13.63;;;4.70;;
27706;SDS011;36332;51.384;0.040;2023-08-12T02:46:10;15.50;;;5.03;;
27706;SDS011;36332;51.384;0.040;2023-08-12T02:48:40;18.90;;;5.45;;
27706;SDS011;36332;51.384;0.040;2023-08-12T02:51:08;17.95;;;5.03;;
27706;SDS011;36332;51.384;0.040;2023-08-12T02:53:37;16.70;;;4.85;;
27706;SDS011;36332;51.384;0.040;2023-08-12T02:56:05;13.02;;;4.80;;
27706;SDS011;36332;51.384;0.040;2023-08-12T02:58:33;17.52;;;4.93;;
27706;SDS011;36332;51.384;0.040;2023-08-12T03:01:01;13.65;;;4.35;;
27706;SDS011;36332;51.384;0.040;2023-08-12T03:03:31;11.52;;;4.63;;
27706;SDS011;36332;51.384;0.040;2023-08-12T03:05:59;15.90;;;5.45;;
27706;SDS011;36332;51.384;0.040;2023-08-12T03:08:29;19.52;;;5.40;;
27706;SDS011;36332;51.384;0.040;2023-08-12T03:10:58;15.15;;;5.63;;
27706;SDS011;36332;51.384;0.040;2023-08-12T03:13:30;21.38;;;5.85;;
27706;SDS011;36332;51.384;0.040;2023-08-12T03:15:58;17.95;;;4.65;;
27706;SDS011;36332;51.384;0.040;2023-08-12T03:18:26;18.77;;;4.97;;
27706;SDS011;36332;51.384;0.040;2023-08-12T03:20:55;21.58;;;4.88;;
27706;SDS011;36332;51.384;0.040;2023-08-12T03:23:24;18.40;;;5.05;;
27706;SDS011;36332;51.384;0.040;2023-08-12T03:25:53;27.50;;;6.00;;
27706;SDS011;36332;51.384;0.040;2023-08-12T03:28:21;14.52;;;5.97;;
27706;SDS011;36332;51.384;0.040;2023-08-12T03:30:50;18.45;;;6.50;;
27706;SDS011;36332;51.384;0.040;2023-08-12T03:33:22;15.48;;;5.85;;
27706;SDS011;36332;51.384;0.040;2023-08-12T03:35:52;19.02;;;5.78;;
27706;SDS011;36332;51.384;0.040;2023-08-12T03:38:20;15.85;;;5.95;;
27706;SDS011;36332;51.384;0.040;2023-08-12T03:40:48;18.58;;;6.47;;
27706;SDS011;36332;51.384;0.040;2023-08-12T03:43:19;23.33;;;8.07;;
27706;SDS011;36332;51.384;0.040;2023-08-12T03:45:48;26.42;;;7.50;;
27706;SDS011;36332;51.384;0.040;2023-08-12T03:48:18;20.73;;;6.70;;
27706;SDS011;36332;51.384;0.040;2023-08-12T03:50:47;19.92;;;7.53;;
27706;SDS011;36332;51.384;0.040;2023-08-12T03:53:15;21.42;;;8.10;;
27706;SDS011;36332;51.384;0.040;2023-08-12T03:55:45;16.70;;;6.95;;
27706;SDS011;36332;51.384;0.040;2023-08-12T03:58:15;21.15;;;8.07;;
27706;SDS011;36332;51.384;0.040;2023-08-12T04:00:44;23.20;;;9.50;;
27706;SDS011;36332;51.384;0.040;2023-08-12T04:03:15;21.83;;;9.23;;
27706;SDS011;36332;51.384;0.040;2023-08-12T04:05:47;24.00;;;9.35;;
27706;SDS011;36332;51.384;0.040;2023-08-12T04:08:16;19.00;;;9.27;;
27706;SDS011;36332;51.384;0.040;2023-08-12T04:10:45;22.90;;;9.18;;
27706;SDS011;36332;51.384;0.040;2023-08-12T04:13:14;21.67;;;10.82;;
27706;SDS011;36332;51.384;0.040;2023-08-12T04:15:42;24.67;;;12.98;;
27706;SDS011;36332;51.384;0.040;2023-08-12T04:18:15;30.65;;;11.05;;
27706;SDS011;36332;51.384;0.040;2023-08-12T04:20:44;21.88;;;11.73;;
27706;SDS011;36332;51.384;0.040;2023-08-12T04:23:13;15.75;;;9.60;;
27706;SDS011;36332;51.384;0.040;2023-08-12T04:25:46;25.35;;;11.55;;
27706;SDS011;36332;51.384;0.040;2023-08-12T04:28:15;21.65;;;11.05;;
27706;SDS011;36332;51.384;0.040;2023-08-12T04:30:44;27.50;;;12.57;;
27706;SDS011;36332;51.384;0.040;2023-08-12T04:33:14;28.73;;;12.18;;
27706;SDS011;36332;51.384;0.040;2023-08-12T04:35:43;33.00;;;12.38;;
27706;SDS011;36332;51.384;0.040;2023-08-12T04:38:12;29.02;;;11.55;;
27706;SDS011;36332;51.384;0.040;2023-08-12T04:40:41;28.25;;;10.95;;
27706;SDS011;36332;51.384;0.040;2023-08-12T04:43:10;24.77;;;11.65;;
27706;SDS011;36332;51.384;0.040;2023-08-12T04:45:38;21.17;;;10.35;;
27706;SDS011;36332;51.384;0.040;2023-08-12T04:48:06;33.30;;;11.48;;
27706;SDS011;36332;51.384;0.040;2023-08-12T04:50:35;29.55;;;10.48;;
27706;SDS011;36332;51.384;0.040;2023-08-12T04:53:05;22.88;;;9.63;;
27706;SDS011;36332;51.384;0.040;2023-08-12T04:55:34;21.60;;;10.27;;
27706;SDS011;36332;51.384;0.040;2023-08-12T04:58:02;30.33;;;10.55;;
27706;SDS011;36332;51.384;0.040;2023-08-12T05:00:31;27.63;;;10.57;;
27706;SDS011;36332;51.384;0.040;2023-08-12T05:02:59;23.02;;;8.40;;
27706;SDS011;36332;51.384;0.040;2023-08-12T05:05:28;23.70;;;8.65;;
27706;SDS011;36332;51.384;0.040;2023-08-12T05:07:57;22.85;;;8.07;;
27706;SDS011;36332;51.384;0.040;2023-08-12T05:10:25;21.48;;;7.88;;
27706;SDS011;36332;51.384;0.040;2023-08-12T05:12:54;24.33;;;7.70;;
27706;SDS011;36332;51.384;0.040;2023-08-12T05:15:26;23.42;;;6.57;;
27706;SDS011;36332;51.384;0.040;2023-08-12T05:17:55;22.70;;;6.38;;
27706;SDS011;36332;51.384;0.040;2023-08-12T05:20:23;32.00;;;6.28;;
27706;SDS011;36332;51.384;0.040;2023-08-12T05:22:51;22.27;;;6.63;;
27706;SDS011;36332;51.384;0.040;2023-08-12T05:25:19;16.85;;;6.35;;
27706;SDS011;36332;51.384;0.040;2023-08-12T05:27:47;25.85;;;6.28;;
27706;SDS011;36332;51.384;0.040;2023-08-12T05:30:15;17.13;;;4.60;;
27706;SDS011;36332;51.384;0.040;2023-08-12T05:32:44;17.58;;;4.78;;
27706;SDS011;36332;51.384;0.040;2023-08-12T05:35:12;24.67;;;5.85;;
27706;SDS011;36332;51.384;0.040;2023-08-12T05:37:40;24.05;;;5.43;;
27706;SDS011;36332;51.384;0.040;2023-08-12T05:40:08;22.73;;;5.43;;
27706;SDS011;36332;51.384;0.040;2023-08-12T05:42:36;26.90;;;5.68;;
27706;SDS011;36332;51.384;0.040;2023-08-12T05:45:04;20.27;;;5.07;;
27706;SDS011;36332;51.384;0.040;2023-08-12T05:47:34;26.02;;;5.03;;
27706;SDS011;36332;51.384;0.040;2023-08-12T05:50:03;19.92;;;5.50;;
27706;SDS011;36332;51.384;0.040;2023-08-12T05:52:31;20.63;;;4.50;;
27706;SDS011;36332;51.384;0.040;2023-08-12T05:54:59;27.50;;;6.60;;
27706;SDS011;36332;51.384;0.040;2023-08-12T05:57:27;19.17;;;6.28;;
27706;SDS011;36332;51.384;0.040;2023-08-12T05:59:55;23.48;;;5.22;;
27706;SDS011;36332;51.384;0.040;2023-08-12T06:02:24;21.77;;;5.03;;
27706;SDS011;36332;51.384;0.040;2023-08-12T06:04:52;30.40;;;6.35;;
27706;SDS011;36332;51.384;0.040;2023-08-12T06:07:21;18.77;;;4.93;;
27706;SDS011;36332;51.384;0.040;2023-08-12T06:09:50;19.85;;;5.32;;
27706;SDS011;36332;51.384;0.040;2023-08-12T06:12:18;19.40;;;4.35;;
27706;SDS011;36332;51.384;0.040;2023-08-12T06:14:45;24.02;;;4.93;;
27706;SDS011;36332;51.384;0.040;2023-08-12T06:17:13;22.77;;;5.65;;
27706;SDS011;36332;51.384;0.040;2023-08-12T06:19:41;24.30;;;5.15;;
27706;SDS011;36332;51.384;0.040;2023-08-12T06:22:08;25.23;;;5.72;;
27706;SDS011;36332;51.384;0.040;2023-08-12T06:24:37;24.85;;;7.10;;
27706;SDS011;36332;51.384;0.040;2023-08-12T06:27:06;21.65;;;4.78;;
27706;SDS011;36332;51.384;0.040;2023-08-12T06:29:34;21.67;;;4.80;;
27706;SDS011;36332;51.384;0.040;2023-08-12T06:32:02;18.35;;;4.47;;
27706;SDS011;36332;51.384;0.040;2023-08-12T06:34:30;24.95;;;5.72;;
27706;SDS011;36332;51.384;0.040;2023-08-12T06:36:58;26.65;;;6.35;;
27706;SDS011;36332;51.384;0.040;2023-08-12T06:39:26;20.85;;;5.05;;
27706;SDS011;36332;51.384;0.040;2023-08-12T06:41:54;18.65;;;5.22;;
27706;SDS011;36332;51.384;0.040;2023-08-12T06:44:22;27.42;;;5.35;;
27706;SDS011;36332;51.384;0.040;2023-08-12T06:46:50;18.20;;;5.13;;
27706;SDS011;36332;51.384;0.040;2023-08-12T06:49:18;25.17;;;5.95;;
27706;SDS011;36332;51.384;0.040;2023-08-12T06:51:46;19.67;;;5.03;;
27706;SDS011;36332;51.384;0.040;2023-08-12T06:54:14;20.48;;;5.38;;
27706;SDS011;36332;51.384;0.040;2023-08-12T06:56:42;32.33;;;6.22;;
27706;SDS011;36332;51.384;0.040;2023-08-12T06:59:09;28.95;;;5.05;;
27706;SDS011;36332;51.384;0.040;2023-08-12T07:01:37;21.45;;;4.25;;
27706;SDS011;36332;51.384;0.040;2023-08-12T07:04:05;18.83;;;4.15;;
27706;SDS011;36332;51.384;0.040;2023-08-12T07:06:34;20.33;;;5.10;;
27706;SDS011;36332;51.384;0.040;2023-08-12T07:09:02;18.40;;;4.95;;
27706;SDS011;36332;51.384;0.040;2023-08-12T07:11:30;31.58;;;5.57;;
27706;SDS011;36332;51.384;0.040;2023-08-12T07:13:58;27.92;;;5.75;;
27706;SDS011;36332;51.384;0.040;2023-08-12T07:16:26;14.73;;;4.50;;
27706;SDS011;36332;51.384;0.040;2023-08-12T07:18:54;29.15;;;5.07;;
27706;SDS011;36332;51.384;0.040;2023-08-12T07:21:21;27.65;;;5.22;;
27706;SDS011;36332;51.384;0.040;2023-08-12T07:23:49;17.60;;;4.43;;
27706;SDS011;36332;51.384;0.040;2023-08-12T07:26:30;22.08;;;4.65;;
27706;SDS011;36332;51.384;0.040;2023-08-12T07:28:58;17.33;;;5.50;;
27706;SDS011;36332;51.384;0.040;2023-08-12T07:31:26;19.85;;;4.60;;
27706;SDS011;36332;51.384;0.040;2023-08-12T07:33:54;20.05;;;4.95;;
27706;SDS011;36332;51.384;0.040;2023-08-12T07:36:22;18.33;;;4.60;;
27706;SDS011;36332;51.384;0.040;2023-08-12T07:38:50;26.63;;;5.13;;
27706;SDS011;36332;51.384;0.040;2023-08-12T07:41:18;16.63;;;4.40;;
27706;SDS011;36332;51.384;0.040;2023-08-12T07:43:46;23.63;;;5.35;;
27706;SDS011;36332;51.384;0.040;2023-08-12T07:46:14;20.38;;;4.45;;
27706;SDS011;36332;51.384;0.040;2023-08-12T07:48:42;28.30;;;5.63;;
27706;SDS011;36332;51.384;0.040;2023-08-12T07:51:10;23.45;;;4.22;;
27706;SDS011;36332;51.384;0.040;2023-08-12T07:53:38;27.30;;;4.80;;
27706;SDS011;36332;51.384;0.040;2023-08-12T07:56:06;18.88;;;4.43;;
27706;SDS011;36332;51.384;0.040;2023-08-12T07:58:34;18.33;;;4.15;;
27706;SDS011;36332;51.384;0.040;2023-08-12T08:01:02;25.15;;;4.70;;
27706;SDS011;36332;51.384;0.040;2023-08-12T08:03:31;18.80;;;4.80;;
27706;SDS011;36332;51.384;0.040;2023-08-12T08:06:00;26.58;;;5.20;;
27706;SDS011;36332;51.384;0.040;2023-08-12T08:08:28;25.90;;;4.60;;
27706;SDS011;36332;51.384;0.040;2023-08-12T08:10:57;17.50;;;3.53;;
27706;SDS011;36332;51.384;0.040;2023-08-12T08:13:26;24.10;;;4.70;;
27706;SDS011;36332;51.384;0.040;2023-08-12T08:15:54;20.92;;;4.05;;
27706;SDS011;36332;51.384;0.040;2023-08-12T08:18:22;18.77;;;3.45;;
27706;SDS011;36332;51.384;0.040;2023-08-12T08:20:50;25.58;;;4.35;;
27706;SDS011;36332;51.384;0.040;2023-08-12T08:23:18;21.75;;;4.38;;
27706;SDS011;36332;51.384;0.040;2023-08-12T08:25:46;22.83;;;5.00;;
27706;SDS011;36332;51.384;0.040;2023-08-12T08:28:14;12.65;;;3.10;;
27706;SDS011;36332;51.384;0.040;2023-08-12T08:30:42;21.10;;;4.32;;
27706;SDS011;36332;51.384;0.040;2023-08-12T08:33:10;16.88;;;3.40;;
27706;SDS011;36332;51.384;0.040;2023-08-12T08:35:38;19.30;;;3.80;;
27706;SDS011;36332;51.384;0.040;2023-08-12T08:38:06;24.05;;;4.72;;
27706;SDS011;36332;51.384;0.040;2023-08-12T08:40:34;19.75;;;3.67;;
27706;SDS011;36332;51.384;0.040;2023-08-12T08:43:02;24.60;;;4.25;;
27706;SDS011;36332;51.384;0.040;2023-08-12T08:45:34;15.52;;;3.35;;
27706;SDS011;36332;51.384;0.040;2023-08-12T08:48:02;20.30;;;4.07;;
27706;SDS011;36332;51.384;0.040;2023-08-12T08:50:30;19.92;;;4.75;;
27706;SDS011;36332;51.384;0.040;2023-08-12T08:52:59;25.25;;;4.70;;
27706;SDS011;36332;51.384;0.040;2023-08-12T08:55:30;17.90;;;3.70;;
27706;SDS011;36332;51.384;0.040;2023-08-12T08:57:58;22.50;;;3.72;;
27706;SDS011;36332;51.384;0.040;2023-08-12T09:00:31;21.88;;;3.72;;
27706;SDS011;36332;51.384;0.040;2023-08-12T09:03:00;16.55;;;3.63;;
27706;SDS011;36332;51.384;0.040;2023-08-12T09:05:29;18.02;;;3.58;;
27706;SDS011;36332;51.384;0.040;2023-08-12T09:07:58;16.98;;;3.80;;
27706;SDS011;36332;51.384;0.040;2023-08-12T09:10:27;17.33;;;3.75;;
27706;SDS011;36332;51.384;0.040;2023-08-12T09:12:56;18.77;;;4.07;;
27706;SDS011;36332;51.384;0.040;2023-08-12T09:15:24;21.13;;;3.80;;
27706;SDS011;36332;51.384;0.040;2023-08-12T09:17:52;12.18;;;3.55;;
27706;SDS011;36332;51.384;0.040;2023-08-12T09:20:20;16.35;;;3.50;;
27706;SDS011;36332;51.384;0.040;2023-08-12T09:22:56;21.85;;;4.18;;
27706;SDS011;36332;51.384;0.040;2023-08-12T09:25:28;16.85;;;3.63;;
27706;SDS011;36332;51.384;0.040;2023-08-12T09:27:59;16.92;;;3.80;;
27706;SDS011;36332;51.384;0.040;2023-08-12T09:30:28;23.35;;;3.58;;
27706;SDS011;36332;51.384;0.040;2023-08-12T09:32:57;20.13;;;4.00;;
27706;SDS011;36332;51.384;0.040;2023-08-12T09:35:31;15.65;;;3.30;;
27706;SDS011;36332;51.384;0.040;2023-08-12T09:38:12;18.42;;;3.50;;
27706;SDS011;36332;51.384;0.040;2023-08-12T09:40:40;17.23;;;3.25;;
27706;SDS011;36332;51.384;0.040;2023-08-12T09:43:09;15.70;;;4.40;;
27706;SDS011;36332;51.384;0.040;2023-08-12T09:45:39;21.90;;;4.72;;
27706;SDS011;36332;51.384;0.040;2023-08-12T09:48:07;17.67;;;3.40;;
27706;SDS011;36332;51.384;0.040;2023-08-12T09:50:37;15.27;;;3.33;;
27706;SDS011;36332;51.384;0.040;2023-08-12T09:53:05;24.90;;;4.30;;
27706;SDS011;36332;51.384;0.040;2023-08-12T09:55:33;16.80;;;3.45;;
27706;SDS011;36332;51.384;0.040;2023-08-12T09:58:03;23.05;;;4.35;;
27706;SDS011;36332;51.384;0.040;2023-08-12T10:00:35;19.48;;;4.13;;
27706;SDS011;36332;51.384;0.040;2023-08-12T10:03:03;18.63;;;5.05;;
27706;SDS011;36332;51.384;0.040;2023-08-12T10:05:32;22.55;;;3.75;;
27706;SDS011;36332;51.384;0.040;2023-08-12T10:08:01;17.40;;;4.20;;
27706;SDS011;36332;51.384;0.040;2023-08-12T10:10:32;22.02;;;4.03;;
27706;SDS011;36332;51.384;0.040;2023-08-12T10:13:02;20.63;;;3.33;;
27706;SDS011;36332;51.384;0.040;2023-08-12T10:15:34;18.45;;;3.67;;
27706;SDS011;36332;51.384;0.040;2023-08-12T10:18:01;18.65;;;3.33;;
27706;SDS011;36332;51.384;0.040;2023-08-12T10:20:35;19.05;;;3.13;;
27706;SDS011;36332;51.384;0.040;2023-08-12T10:23:04;18.27;;;4.05;;
27706;SDS011;36332;51.384;0.040;2023-08-12T10:25:34;18.48;;;4.00;;
27706;SDS011;36332;51.384;0.040;2023-08-12T10:28:04;17.08;;;3.38;;
27706;SDS011;36332;51.384;0.040;2023-08-12T10:30:32;14.23;;;3.17;;
27706;SDS011;36332;51.384;0.040;2023-08-12T10:33:01;16.25;;;3.53;;
27706;SDS011;36332;51.384;0.040;2023-08-12T10:38:19;18.35;;;4.45;;
27706;SDS011;36332;51.384;0.040;2023-08-12T10:40:47;14.15;;;3.25;;
27706;SDS011;36332;51.384;0.040;2023-08-12T10:43:15;11.10;;;2.95;;
27706;SDS011;36332;51.384;0.040;2023-08-12T10:45:44;11.60;;;2.92;;
27706;SDS011;36332;51.384;0.040;2023-08-12T10:48:21;18.25;;;4.28;;
27706;SDS011;36332;51.384;0.040;2023-08-12T10:50:55;17.20;;;3.42;;
27706;SDS011;36332;51.384;0.040;2023-08-12T10:53:28;18.00;;;3.30;;
27706;SDS011;36332;51.384;0.040;2023-08-12T10:56:00;18.55;;;3.90;;
27706;SDS011;36332;51.384;0.040;2023-08-12T10:58:44;16.65;;;3.65;;
27706;SDS011;36332;51.384;0.040;2023-08-12T11:01:13;17.20;;;3.38;;
27706;SDS011;36332;51.384;0.040;2023-08-12T11:03:45;17.95;;;3.63;;
27706;SDS011;36332;51.384;0.040;2023-08-12T11:06:13;22.85;;;3.95;;
27706;SDS011;36332;51.384;0.040;2023-08-12T11:08:48;18.90;;;3.78;;
27706;SDS011;36332;51.384;0.040;2023-08-12T11:11:20;22.33;;;3.80;;
27706;SDS011;36332;51.384;0.040;2023-08-12T11:13:54;14.98;;;3.63;;
27706;SDS011;36332;51.384;0.040;2023-08-12T11:16:31;19.48;;;4.32;;
27706;SDS011;36332;51.384;0.040;2023-08-12T11:19:02;19.88;;;3.63;;
27706;SDS011;36332;51.384;0.040;2023-08-12T11:21:30;26.30;;;4.43;;
27706;SDS011;36332;51.384;0.040;2023-08-12T11:23:58;15.30;;;3.42;;
27706;SDS011;36332;51.384;0.040;2023-08-12T11:26:26;22.08;;;4.25;;
27706;SDS011;36332;51.384;0.040;2023-08-12T11:28:55;16.35;;;3.22;;
27706;SDS011;36332;51.384;0.040;2023-08-12T11:31:24;24.15;;;4.13;;
27706;SDS011;36332;51.384;0.040;2023-08-12T11:33:52;17.38;;;3.67;;
27706;SDS011;36332;51.384;0.040;2023-08-12T11:36:20;14.30;;;3.92;;
27706;SDS011;36332;51.384;0.040;2023-08-12T11:38:48;22.58;;;4.47;;
27706;SDS011;36332;51.384;0.040;2023-08-12T11:41:22;24.33;;;3.78;;
27706;SDS011;36332;51.384;0.040;2023-08-12T11:43:50;11.82;;;2.85;;
27706;SDS011;36332;51.384;0.040;2023-08-12T11:46:18;16.67;;;3.67;;
27706;SDS011;36332;51.384;0.040;2023-08-12T11:48:45;15.07;;;3.70;;
27706;SDS011;36332;51.384;0.040;2023-08-12T11:51:17;14.88;;;3.38;;
27706;SDS011;36332;51.384;0.040;2023-08-12T11:53:45;22.30;;;3.65;;
27706;SDS011;36332;51.384;0.040;2023-08-12T11:56:13;10.15;;;2.45;;
27706;SDS011;36332;51.384;0.040;2023-08-12T11:58:41;12.32;;;3.00;;
27706;SDS011;36332;51.384;0.040;2023-08-12T12:01:20;10.52;;;2.70;;
27706;SDS011;36332;51.384;0.040;2023-08-12T12:03:52;12.18;;;2.40;;
27706;SDS011;36332;51.384;0.040;2023-08-12T12:06:33;20.95;;;4.00;;
27706;SDS011;36332;51.384;0.040;2023-08-12T12:09:04;10.57;;;2.35;;
27706;SDS011;36332;51.384;0.040;2023-08-12T12:11:37;18.55;;;2.42;;
27706;SDS011;36332;51.384;0.040;2023-08-12T12:14:05;12.70;;;3.25;;
27706;SDS011;36332;51.384;0.040;2023-08-12T12:19:13;17.50;;;2.80;;
27706;SDS011;36332;51.384;0.040;2023-08-12T12:21:46;12.80;;;2.40;;
27706;SDS011;36332;51.384;0.040;2023-08-12T12:24:16;12.23;;;2.67;;
27706;SDS011;36332;51.384;0.040;2023-08-12T12:26:44;16.50;;;3.20;;
27706;SDS011;36332;51.384;0.040;2023-08-12T12:29:14;15.50;;;3.25;;
27706;SDS011;36332;51.384;0.040;2023-08-12T12:31:42;11.98;;;2.85;;
27706;SDS011;36332;51.384;0.040;2023-08-12T12:34:10;13.65;;;2.92;;
27706;SDS011;36332;51.384;0.040;2023-08-12T12:36:38;10.32;;;2.72;;
27706;SDS011;36332;51.384;0.040;2023-08-12T12:39:06;13.85;;;3.30;;
27706;SDS011;36332;51.384;0.040;2023-08-12T12:41:35;11.50;;;2.70;;
27706;SDS011;36332;51.384;0.040;2023-08-12T12:44:03;12.55;;;2.75;;
27706;SDS011;36332;51.384;0.040;2023-08-12T12:46:31;10.80;;;2.40;;
27706;SDS011;36332;51.384;0.040;2023-08-12T12:49:00;13.18;;;3.00;;
27706;SDS011;36332;51.384;0.040;2023-08-12T12:51:27;14.35;;;3.90;;
27706;SDS011;36332;51.384;0.040;2023-08-12T12:53:55;12.50;;;2.60;;
27706;SDS011;36332;51.384;0.040;2023-08-12T12:56:24;11.45;;;2.67;;
27706;SDS011;36332;51.384;0.040;2023-08-12T12:58:51;8.90;;;2.67;;
27706;SDS011;36332;51.384;0.040;2023-08-12T13:01:19;11.38;;;2.70;;
27706;SDS011;36332;51.384;0.040;2023-08-12T13:03:47;9.07;;;2.25;;
27706;SDS011;36332;51.384;0.040;2023-08-12T13:06:15;11.65;;;2.38;;
27706;SDS011;36332;51.384;0.040;2023-08-12T13:08:43;10.48;;;2.20;;
27706;SDS011;36332;51.384;0.040;2023-08-12T13:11:12;9.63;;;2.97;;
27706;SDS011;36332;51.384;0.040;2023-08-12T13:13:42;9.07;;;2.97;;
27706;SDS011;36332;51.384;0.040;2023-08-12T13:16:11;11.40;;;2.20;;
27706;SDS011;36332;51.384;0.040;2023-08-12T13:18:40;11.10;;;2.95;;
27706;SDS011;36332;51.384;0.040;2023-08-12T13:21:09;7.75;;;2.03;;
27706;SDS011;36332;51.384;0.040;2023-08-12T13:23:38;13.68;;;1.98;;
27706;SDS011;36332;51.384;0.040;2023-08-12T13:26:09;10.40;;;2.50;;
27706;SDS011;36332;51.384;0.040;2023-08-12T13:28:38;10.57;;;3.08;;
27706;SDS011;36332;51.384;0.040;2023-08-12T13:31:11;9.57;;;1.90;;
27706;SDS011;36332;51.384;0.040;2023-08-12T13:33:42;15.63;;;2.35;;
27706;SDS011;36332;51.384;0.040;2023-08-12T13:36:10;11.68;;;2.60;;
27706;SDS011;36332;51.384;0.040;2023-08-12T13:38:38;10.93;;;2.33;;
27706;SDS011;36332;51.384;0.040;2023-08-12T13:41:07;10.32;;;2.33;;
27706;SDS011;36332;51.384;0.040;2023-08-12T13:43:35;14.95;;;2.97;;
27706;SDS011;36332;51.384;0.040;2023-08-12T13:46:03;12.77;;;2.65;;
27706;SDS011;36332;51.384;0.040;2023-08-12T13:48:33;19.73;;;3.88;;
27706;SDS011;36332;51.384;0.040;2023-08-12T13:51:03;16.50;;;3.58;;
27706;SDS011;36332;51.384;0.040;2023-08-12T13:53:31;10.63;;;2.67;;
27706;SDS011;36332;51.384;0.040;2023-08-12T13:55:59;12.27;;;3.20;;
27706;SDS011;36332;51.384;0.040;2023-08-12T13:58:27;16.08;;;3.65;;
27706;SDS011;36332;51.384;0.040;2023-08-12T14:00:54;14.80;;;3.42;;
27706;SDS011;36332;51.384;0.040;2023-08-12T14:03:23;14.38;;;2.95;;
27706;SDS011;36332;51.384;0.040;2023-08-12T14:05:50;16.55;;;2.55;;
27706;SDS011;36332;51.384;0.040;2023-08-12T14:08:18;9.95;;;2.10;;
27706;SDS011;36332;51.384;0.040;2023-08-12T14:10:46;12.15;;;2.90;;
27706;SDS011;36332;51.384;0.040;2023-08-12T14:13:14;9.55;;;1.98;;
27706;SDS011;36332;51.384;0.040;2023-08-12T14:15:42;17.08;;;3.20;;
27706;SDS011;36332;51.384;0.040;2023-08-12T14:18:12;17.27;;;3.55;;
27706;SDS011;36332;51.384;0.040;2023-08-12T14:20:40;18.02;;;3.67;;
27706;SDS011;36332;51.384;0.040;2023-08-12T14:23:08;10.60;;;2.88;;
27706;SDS011;36332;51.384;0.040;2023-08-12T14:25:36;17.30;;;3.15;;
27706;SDS011;36332;51.384;0.040;2023-08-12T14:28:04;18.48;;;3.60;;
27706;SDS011;36332;51.384;0.040;2023-08-12T14:30:32;15.23;;;3.65;;
27706;SDS011;36332;51.384;0.040;2023-08-12T14:33:00;22.00;;;4.47;;
27706;SDS011;36332;51.384;0.040;2023-08-12T14:35:28;21.02;;;4.32;;
27706;SDS011;36332;51.384;0.040;2023-08-12T14:37:56;15.90;;;3.97;;
27706;SDS011;36332;51.384;0.040;2023-08-12T14:40:28;15.00;;;3.97;;
27706;SDS011;36332;51.384;0.040;2023-08-12T14:42:56;17.63;;;4.40;;
27706;SDS011;36332;51.384;0.040;2023-08-12T14:45:24;19.90;;;4.38;;
27706;SDS011;36332;51.384;0.040;2023-08-12T14:47:52;16.65;;;4.10;;
27706;SDS011;36332;51.384;0.040;2023-08-12T14:50:20;22.20;;;4.88;;
27706;SDS011;36332;51.384;0.040;2023-08-12T14:52:47;19.90;;;3.05;;
27706;SDS011;36332;51.384;0.040;2023-08-12T14:55:15;16.55;;;4.20;;